Terminal Aerodrome Forecast
Issued by NWS

Current Version | Previous Version | Text Only | Print | Product List | Glossary On
Versions: 1 2 3 4 5 6 7 8 9 10 11 12 13 14 15 16 17 18 19 20 21 22 23 24 25 26 27 28 29 30 31 32 33 34 35 36 37 38 39 40 41 42 43 44 45 46 47 48 49 50
985
FTUS44 KLIX 221249 AAA
TAFASD
TAF AMD
KASD 221249Z 2213/2312 34004KT 3SM BR SCT012
     FM221500 26021KT P6SM BKN040
     FM222300 29021KT P6SM SCT060
     FM230800 31009KT P6SM FEW070=

USA.gov is the U.S. government's official web portal to all federal, state and local government web resources and services.